sensor_id;sensor_type;location;lat;lon;timestamp;temperature;humidity
16867;DHT22;8550;52.596;13.320;2023-10-08T00:02:25;11.80;99.90
16867;DHT22;8550;52.596;13.320;2023-10-08T00:07:28;11.90;99.90
16867;DHT22;8550;52.596;13.320;2023-10-08T00:12:36;11.90;99.90
16867;DHT22;8550;52.596;13.320;2023-10-08T00:17:38;11.80;99.90
16867;DHT22;8550;52.596;13.320;2023-10-08T00:22:41;11.90;99.90
16867;DHT22;8550;52.596;13.320;2023-10-08T00:27:43;11.90;99.90
16867;DHT22;8550;52.596;13.320;2023-10-08T00:32:46;11.80;99.90
16867;DHT22;8550;52.596;13.320;2023-10-08T00:37:55;11.70;99.90
16867;DHT22;8550;52.596;13.320;2023-10-08T00:43:10;11.80;99.90
16867;DHT22;8550;52.596;13.320;2023-10-08T00:48:12;11.70;99.90
16867;DHT22;8550;52.596;13.320;2023-10-08T00:53:27;11.70;99.90
16867;DHT22;8550;52.596;13.320;2023-10-08T00:58:42;11.70;99.90
16867;DHT22;8550;52.596;13.320;2023-10-08T01:03:49;11.60;99.90
16867;DHT22;8550;52.596;13.320;2023-10-08T01:08:58;11.60;99.90
16867;DHT22;8550;52.596;13.320;2023-10-08T01:14:25;11.60;99.90
16867;DHT22;8550;52.596;13.320;2023-10-08T01:19:35;11.60;99.90
16867;DHT22;8550;52.596;13.320;2023-10-08T01:24:45;11.60;99.90
16867;DHT22;8550;52.596;13.320;2023-10-08T01:29:56;11.60;99.90
16867;DHT22;8550;52.596;13.320;2023-10-08T01:35:09;11.60;99.90
16867;DHT22;8550;52.596;13.320;2023-10-08T01:40:24;11.60;99.90
16867;DHT22;8550;52.596;13.320;2023-10-08T01:51:16;11.60;99.90
16867;DHT22;8550;52.596;13.320;2023-10-08T01:56:33;11.60;99.90
16867;DHT22;8550;52.596;13.320;2023-10-08T02:01:42;11.50;99.90
16867;DHT22;8550;52.596;13.320;2023-10-08T02:06:58;11.50;99.90
16867;DHT22;8550;52.596;13.320;2023-10-08T02:12:30;11.50;99.90
16867;DHT22;8550;52.596;13.320;2023-10-08T02:17:32;11.50;99.90
16867;DHT22;8550;52.596;13.320;2023-10-08T02:22:34;11.60;99.90
16867;DHT22;8550;52.596;13.320;2023-10-08T02:27:38;11.50;99.90
16867;DHT22;8550;52.596;13.320;2023-10-08T02:32:41;11.60;99.90
16867;DHT22;8550;52.596;13.320;2023-10-08T02:37:43;11.60;99.90
16867;DHT22;8550;52.596;13.320;2023-10-08T02:42:48;11.60;99.90
16867;DHT22;8550;52.596;13.320;2023-10-08T02:47:50;11.50;99.90
16867;DHT22;8550;52.596;13.320;2023-10-08T02:53:04;11.50;99.90
16867;DHT22;8550;52.596;13.320;2023-10-08T02:58:13;11.50;99.90
16867;DHT22;8550;52.596;13.320;2023-10-08T03:03:18;11.50;99.90
16867;DHT22;8550;52.596;13.320;2023-10-08T03:08:20;11.50;99.90
16867;DHT22;8550;52.596;13.320;2023-10-08T03:13:24;11.60;99.90
16867;DHT22;8550;52.596;13.320;2023-10-08T03:18:27;11.40;99.90
16867;DHT22;8550;52.596;13.320;2023-10-08T03:23:36;11.40;99.90
16867;DHT22;8550;52.596;13.320;2023-10-08T03:28:47;11.40;99.90
16867;DHT22;8550;52.596;13.320;2023-10-08T03:33:58;11.40;99.90
16867;DHT22;8550;52.596;13.320;2023-10-08T03:39:01;11.40;99.90
16867;DHT22;8550;52.596;13.320;2023-10-08T03:44:13;11.50;99.90
16867;DHT22;8550;52.596;13.320;2023-10-08T03:49:17;11.50;99.90
16867;DHT22;8550;52.596;13.320;2023-10-08T03:54:25;11.50;99.90
16867;DHT22;8550;52.596;13.320;2023-10-08T03:59:37;11.60;99.90
16867;DHT22;8550;52.596;13.320;2023-10-08T04:04:44;11.50;99.90
16867;DHT22;8550;52.596;13.320;2023-10-08T04:09:55;11.40;99.90
16867;DHT22;8550;52.596;13.320;2023-10-08T04:15:22;11.30;99.90
16867;DHT22;8550;52.596;13.320;2023-10-08T04:20:25;11.20;99.90
16867;DHT22;8550;52.596;13.320;2023-10-08T04:25:36;11.10;99.90
16867;DHT22;8550;52.596;13.320;2023-10-08T04:30:39;11.00;99.90
16867;DHT22;8550;52.596;13.320;2023-10-08T04:35:43;11.00;99.90
16867;DHT22;8550;52.596;13.320;2023-10-08T04:40:52;11.00;99.90
16867;DHT22;8550;52.596;13.320;2023-10-08T04:45:56;10.90;99.90
16867;DHT22;8550;52.596;13.320;2023-10-08T04:50:58;10.70;99.90
16867;DHT22;8550;52.596;13.320;2023-10-08T04:56:01;10.60;99.90
16867;DHT22;8550;52.596;13.320;2023-10-08T05:01:08;10.50;99.90
16867;DHT22;8550;52.596;13.320;2023-10-08T05:06:18;10.40;99.90
16867;DHT22;8550;52.596;13.320;2023-10-08T05:11:41;10.30;99.90
16867;DHT22;8550;52.596;13.320;2023-10-08T05:17:09;10.30;99.90
16867;DHT22;8550;52.596;13.320;2023-10-08T05:22:22;10.20;99.90
16867;DHT22;8550;52.596;13.320;2023-10-08T05:27:46;10.20;99.90
16867;DHT22;8550;52.596;13.320;2023-10-08T05:33:11;10.10;99.90
16867;DHT22;8550;52.596;13.320;2023-10-08T05:38:25;10.00;99.90
16867;DHT22;8550;52.596;13.320;2023-10-08T05:43:41;9.90;99.90
16867;DHT22;8550;52.596;13.320;2023-10-08T05:49:16;9.90;99.90
16867;DHT22;8550;52.596;13.320;2023-10-08T05:54:35;10.00;99.90
16867;DHT22;8550;52.596;13.320;2023-10-08T05:59:48;10.10;99.90
16867;DHT22;8550;52.596;13.320;2023-10-08T06:05:15;10.20;99.90
16867;DHT22;8550;52.596;13.320;2023-10-08T06:10:26;10.30;99.90
16867;DHT22;8550;52.596;13.320;2023-10-08T06:15:43;10.50;99.90
16867;DHT22;8550;52.596;13.320;2023-10-08T06:20:50;10.40;99.90
16867;DHT22;8550;52.596;13.320;2023-10-08T06:25:55;10.50;99.90
16867;DHT22;8550;52.596;13.320;2023-10-08T06:30:59;10.80;99.90
16867;DHT22;8550;52.596;13.320;2023-10-08T06:36:03;10.70;99.90
16867;DHT22;8550;52.596;13.320;2023-10-08T06:41:13;10.60;99.90
16867;DHT22;8550;52.596;13.320;2023-10-08T06:46:18;10.60;99.90
16867;DHT22;8550;52.596;13.320;2023-10-08T06:51:23;10.70;99.90
16867;DHT22;8550;52.596;13.320;2023-10-08T06:56:26;11.00;99.90
16867;DHT22;8550;52.596;13.320;2023-10-08T07:01:28;10.90;99.90
16867;DHT22;8550;52.596;13.320;2023-10-08T07:06:41;11.10;99.90
16867;DHT22;8550;52.596;13.320;2023-10-08T07:11:43;10.90;99.90
16867;DHT22;8550;52.596;13.320;2023-10-08T07:16:46;11.00;99.90
16867;DHT22;8550;52.596;13.320;2023-10-08T07:21:52;11.20;99.90
16867;DHT22;8550;52.596;13.320;2023-10-08T07:27:03;11.20;99.90
16867;DHT22;8550;52.596;13.320;2023-10-08T07:32:09;11.10;99.90
16867;DHT22;8550;52.596;13.320;2023-10-08T07:37:13;11.10;99.90
16867;DHT22;8550;52.596;13.320;2023-10-08T07:42:16;11.20;99.90
16867;DHT22;8550;52.596;13.320;2023-10-08T07:47:18;11.20;99.90
16867;DHT22;8550;52.596;13.320;2023-10-08T07:52:23;11.50;99.90
16867;DHT22;8550;52.596;13.320;2023-10-08T07:57:25;11.40;99.90
16867;DHT22;8550;52.596;13.320;2023-10-08T08:02:27;11.40;99.90
16867;DHT22;8550;52.596;13.320;2023-10-08T08:07:31;11.60;99.90
16867;DHT22;8550;52.596;13.320;2023-10-08T08:12:32;11.70;99.90
16867;DHT22;8550;52.596;13.320;2023-10-08T08:17:35;11.60;99.90
16867;DHT22;8550;52.596;13.320;2023-10-08T08:22:39;11.80;99.90
16867;DHT22;8550;52.596;13.320;2023-10-08T08:27:41;11.90;99.90
16867;DHT22;8550;52.596;13.320;2023-10-08T08:32:45;12.10;99.90
16867;DHT22;8550;52.596;13.320;2023-10-08T08:37:49;12.20;99.90
16867;DHT22;8550;52.596;13.320;2023-10-08T08:42:51;12.20;99.90
16867;DHT22;8550;52.596;13.320;2023-10-08T08:47:55;12.40;99.90
16867;DHT22;8550;52.596;13.320;2023-10-08T08:52:59;12.30;99.90
16867;DHT22;8550;52.596;13.320;2023-10-08T08:58:01;12.60;99.90
16867;DHT22;8550;52.596;13.320;2023-10-08T09:03:06;12.70;99.90
16867;DHT22;8550;52.596;13.320;2023-10-08T09:08:09;12.80;99.90
16867;DHT22;8550;52.596;13.320;2023-10-08T09:13:11;12.80;99.90
16867;DHT22;8550;52.596;13.320;2023-10-08T09:18:14;12.80;99.90
16867;DHT22;8550;52.596;13.320;2023-10-08T09:23:17;13.00;99.90
16867;DHT22;8550;52.596;13.320;2023-10-08T09:28:24;13.10;99.90
16867;DHT22;8550;52.596;13.320;2023-10-08T09:33:28;13.20;99.90
16867;DHT22;8550;52.596;13.320;2023-10-08T09:38:32;13.20;99.90
16867;DHT22;8550;52.596;13.320;2023-10-08T09:43:34;13.20;99.90
16867;DHT22;8550;52.596;13.320;2023-10-08T09:48:37;13.30;99.90
16867;DHT22;8550;52.596;13.320;2023-10-08T09:54:00;13.50;99.90
16867;DHT22;8550;52.596;13.320;2023-10-08T09:59:05;13.60;99.90
16867;DHT22;8550;52.596;13.320;2023-10-08T10:04:09;13.70;99.90
16867;DHT22;8550;52.596;13.320;2023-10-08T10:09:20;13.80;99.90
16867;DHT22;8550;52.596;13.320;2023-10-08T10:14:23;13.90;99.90
16867;DHT22;8550;52.596;13.320;2023-10-08T10:19:26;14.00;99.90
16867;DHT22;8550;52.596;13.320;2023-10-08T10:24:33;14.10;99.90
16867;DHT22;8550;52.596;13.320;2023-10-08T10:29:36;14.90;99.90
16867;DHT22;8550;52.596;13.320;2023-10-08T10:34:39;15.70;93.40
16867;DHT22;8550;52.596;13.320;2023-10-08T10:39:42;16.70;89.00
16867;DHT22;8550;52.596;13.320;2023-10-08T10:44:47;17.60;84.60
16867;DHT22;8550;52.596;13.320;2023-10-08T10:49:52;17.90;85.90
16867;DHT22;8550;52.596;13.320;2023-10-08T10:54:58;17.20;84.70
16867;DHT22;8550;52.596;13.320;2023-10-08T11:00:05;16.50;81.70
16867;DHT22;8550;52.596;13.320;2023-10-08T11:05:32;17.50;85.00
16867;DHT22;8550;52.596;13.320;2023-10-08T11:10:39;18.20;74.80
16867;DHT22;8550;52.596;13.320;2023-10-08T11:15:48;18.20;71.60
16867;DHT22;8550;52.596;13.320;2023-10-08T11:20:52;19.00;74.40
16867;DHT22;8550;52.596;13.320;2023-10-08T11:26:04;19.00;69.20
16867;DHT22;8550;52.596;13.320;2023-10-08T11:31:07;19.40;65.10
16867;DHT22;8550;52.596;13.320;2023-10-08T11:36:10;19.10;65.60
16867;DHT22;8550;52.596;13.320;2023-10-08T11:41:21;19.10;67.70
16867;DHT22;8550;52.596;13.320;2023-10-08T11:46:24;20.00;64.40
16867;DHT22;8550;52.596;13.320;2023-10-08T11:51:34;21.60;59.30
16867;DHT22;8550;52.596;13.320;2023-10-08T11:56:37;21.60;57.50
16867;DHT22;8550;52.596;13.320;2023-10-08T12:01:40;19.70;55.90
16867;DHT22;8550;52.596;13.320;2023-10-08T12:06:43;18.30;62.80
16867;DHT22;8550;52.596;13.320;2023-10-08T12:11:48;17.40;66.70
16867;DHT22;8550;52.596;13.320;2023-10-08T12:16:51;16.60;64.60
16867;DHT22;8550;52.596;13.320;2023-10-08T12:21:53;16.10;69.20
16867;DHT22;8550;52.596;13.320;2023-10-08T12:26:56;16.10;74.40
16867;DHT22;8550;52.596;13.320;2023-10-08T12:31:59;16.20;72.90
16867;DHT22;8550;52.596;13.320;2023-10-08T12:37:03;16.30;71.90
16867;DHT22;8550;52.596;13.320;2023-10-08T12:42:09;16.10;73.40
16867;DHT22;8550;52.596;13.320;2023-10-08T12:47:13;16.30;72.80
16867;DHT22;8550;52.596;13.320;2023-10-08T12:52:14;16.20;71.90
16867;DHT22;8550;52.596;13.320;2023-10-08T12:57:18;16.60;69.30
16867;DHT22;8550;52.596;13.320;2023-10-08T13:02:20;17.00;71.00
16867;DHT22;8550;52.596;13.320;2023-10-08T13:07:28;16.50;69.70
16867;DHT22;8550;52.596;13.320;2023-10-08T13:12:40;16.80;71.80
16867;DHT22;8550;52.596;13.320;2023-10-08T13:17:43;16.60;70.00
16867;DHT22;8550;52.596;13.320;2023-10-08T13:22:46;16.40;71.20
16867;DHT22;8550;52.596;13.320;2023-10-08T13:27:49;16.50;70.90
16867;DHT22;8550;52.596;13.320;2023-10-08T13:32:52;16.30;73.90
16867;DHT22;8550;52.596;13.320;2023-10-08T13:37:54;16.40;77.20
16867;DHT22;8550;52.596;13.320;2023-10-08T13:42:59;17.20;73.00
16867;DHT22;8550;52.596;13.320;2023-10-08T13:48:00;18.50;64.40
16867;DHT22;8550;52.596;13.320;2023-10-08T13:53:03;19.20;62.20
16867;DHT22;8550;52.596;13.320;2023-10-08T13:58:07;20.70;57.20
16867;DHT22;8550;52.596;13.320;2023-10-08T14:03:09;20.80;58.90
16867;DHT22;8550;52.596;13.320;2023-10-08T14:08:14;21.70;55.20
16867;DHT22;8550;52.596;13.320;2023-10-08T14:13:17;21.30;53.50
16867;DHT22;8550;52.596;13.320;2023-10-08T14:18:20;23.10;52.00
16867;DHT22;8550;52.596;13.320;2023-10-08T14:23:27;23.80;49.00
16867;DHT22;8550;52.596;13.320;2023-10-08T14:28:31;23.30;49.80
16867;DHT22;8550;52.596;13.320;2023-10-08T14:33:44;23.60;49.20
16867;DHT22;8550;52.596;13.320;2023-10-08T14:38:56;23.60;49.10
16867;DHT22;8550;52.596;13.320;2023-10-08T14:44:22;22.00;50.70
16867;DHT22;8550;52.596;13.320;2023-10-08T14:49:24;22.80;51.10
16867;DHT22;8550;52.596;13.320;2023-10-08T14:54:26;22.40;50.20
16867;DHT22;8550;52.596;13.320;2023-10-08T14:59:30;21.60;51.90
16867;DHT22;8550;52.596;13.320;2023-10-08T15:04:33;21.50;53.80
16867;DHT22;8550;52.596;13.320;2023-10-08T15:09:39;20.80;53.90
16867;DHT22;8550;52.596;13.320;2023-10-08T15:14:43;20.90;55.10
16867;DHT22;8550;52.596;13.320;2023-10-08T15:19:45;19.20;56.70
16867;DHT22;8550;52.596;13.320;2023-10-08T15:24:47;18.20;60.70
16867;DHT22;8550;52.596;13.320;2023-10-08T15:29:51;17.30;64.00
16867;DHT22;8550;52.596;13.320;2023-10-08T15:34:53;16.60;70.30
16867;DHT22;8550;52.596;13.320;2023-10-08T15:39:54;16.20;74.00
16867;DHT22;8550;52.596;13.320;2023-10-08T15:44:58;15.50;85.10
16867;DHT22;8550;52.596;13.320;2023-10-08T15:50:00;15.00;95.00
16867;DHT22;8550;52.596;13.320;2023-10-08T15:55:01;14.70;99.90
16867;DHT22;8550;52.596;13.320;2023-10-08T16:00:08;14.30;99.90
16867;DHT22;8550;52.596;13.320;2023-10-08T16:05:11;13.90;99.90
16867;DHT22;8550;52.596;13.320;2023-10-08T16:10:14;13.70;99.90
16867;DHT22;8550;52.596;13.320;2023-10-08T16:15:17;13.60;99.90
16867;DHT22;8550;52.596;13.320;2023-10-08T16:20:20;13.40;99.90
16867;DHT22;8550;52.596;13.320;2023-10-08T16:25:22;13.30;99.90
16867;DHT22;8550;52.596;13.320;2023-10-08T16:30:25;13.20;99.90
16867;DHT22;8550;52.596;13.320;2023-10-08T16:35:28;13.20;99.90
16867;DHT22;8550;52.596;13.320;2023-10-08T16:40:31;12.80;99.90
16867;DHT22;8550;52.596;13.320;2023-10-08T16:45:36;12.70;99.90
16867;DHT22;8550;52.596;13.320;2023-10-08T16:50:39;12.60;99.90
16867;DHT22;8550;52.596;13.320;2023-10-08T16:55:41;12.60;99.90
16867;DHT22;8550;52.596;13.320;2023-10-08T17:00:45;12.50;99.90
16867;DHT22;8550;52.596;13.320;2023-10-08T17:05:48;12.40;99.90
16867;DHT22;8550;52.596;13.320;2023-10-08T17:10:50;12.30;99.90
16867;DHT22;8550;52.596;13.320;2023-10-08T17:15:53;12.40;99.90
16867;DHT22;8550;52.596;13.320;2023-10-08T17:20:55;12.30;99.90
16867;DHT22;8550;52.596;13.320;2023-10-08T17:25:57;12.10;99.90
16867;DHT22;8550;52.596;13.320;2023-10-08T17:31:00;12.00;99.90
16867;DHT22;8550;52.596;13.320;2023-10-08T17:36:06;12.00;99.90
16867;DHT22;8550;52.596;13.320;2023-10-08T17:41:08;12.10;99.90
16867;DHT22;8550;52.596;13.320;2023-10-08T17:46:16;12.20;99.90
16867;DHT22;8550;52.596;13.320;2023-10-08T17:51:23;12.20;99.90
16867;DHT22;8550;52.596;13.320;2023-10-08T17:56:28;12.10;99.90
16867;DHT22;8550;52.596;13.320;2023-10-08T18:01:32;12.10;99.90
16867;DHT22;8550;52.596;13.320;2023-10-08T18:06:35;12.00;99.90
16867;DHT22;8550;52.596;13.320;2023-10-08T18:11:37;11.90;99.90
16867;DHT22;8550;52.596;13.320;2023-10-08T18:16:44;11.80;99.90
16867;DHT22;8550;52.596;13.320;2023-10-08T18:21:47;11.90;99.90
16867;DHT22;8550;52.596;13.320;2023-10-08T18:26:49;11.80;99.90
16867;DHT22;8550;52.596;13.320;2023-10-08T18:31:52;11.80;99.90
16867;DHT22;8550;52.596;13.320;2023-10-08T18:36:54;11.90;99.90
16867;DHT22;8550;52.596;13.320;2023-10-08T18:42:00;11.70;99.90
16867;DHT22;8550;52.596;13.320;2023-10-08T18:47:05;11.50;99.90
16867;DHT22;8550;52.596;13.320;2023-10-08T18:52:08;11.60;99.90
16867;DHT22;8550;52.596;13.320;2023-10-08T18:57:10;11.60;99.90
16867;DHT22;8550;52.596;13.320;2023-10-08T19:02:13;11.40;99.90
16867;DHT22;8550;52.596;13.320;2023-10-08T19:07:15;11.30;99.90
16867;DHT22;8550;52.596;13.320;2023-10-08T19:12:17;11.30;99.90
16867;DHT22;8550;52.596;13.320;2023-10-08T19:17:20;11.30;99.90
16867;DHT22;8550;52.596;13.320;2023-10-08T19:22:23;11.40;99.90
16867;DHT22;8550;52.596;13.320;2023-10-08T19:27:27;11.40;99.90
16867;DHT22;8550;52.596;13.320;2023-10-08T19:32:30;11.40;99.90
16867;DHT22;8550;52.596;13.320;2023-10-08T19:37:32;11.30;99.90
16867;DHT22;8550;52.596;13.320;2023-10-08T19:42:34;11.30;99.90
16867;DHT22;8550;52.596;13.320;2023-10-08T19:47:41;11.20;99.90
16867;DHT22;8550;52.596;13.320;2023-10-08T19:52:44;11.20;99.90
16867;DHT22;8550;52.596;13.320;2023-10-08T19:57:45;11.10;99.90
16867;DHT22;8550;52.596;13.320;2023-10-08T20:02:49;11.10;99.90
16867;DHT22;8550;52.596;13.320;2023-10-08T20:07:52;11.20;99.90
16867;DHT22;8550;52.596;13.320;2023-10-08T20:12:54;11.20;99.90
16867;DHT22;8550;52.596;13.320;2023-10-08T20:17:57;11.20;99.90
16867;DHT22;8550;52.596;13.320;2023-10-08T20:22:59;11.20;99.90
16867;DHT22;8550;52.596;13.320;2023-10-08T20:28:01;11.20;99.90
16867;DHT22;8550;52.596;13.320;2023-10-08T20:33:06;11.30;99.90
16867;DHT22;8550;52.596;13.320;2023-10-08T20:38:10;11.20;99.90
16867;DHT22;8550;52.596;13.320;2023-10-08T20:43:13;11.10;99.90
16867;DHT22;8550;52.596;13.320;2023-10-08T20:48:17;11.10;99.90
16867;DHT22;8550;52.596;13.320;2023-10-08T20:53:19;11.00;99.90
16867;DHT22;8550;52.596;13.320;2023-10-08T20:58:22;11.00;99.90
16867;DHT22;8550;52.596;13.320;2023-10-08T21:03:29;10.90;99.90
16867;DHT22;8550;52.596;13.320;2023-10-08T21:08:31;10.90;99.90
16867;DHT22;8550;52.596;13.320;2023-10-08T21:13:34;10.90;99.90
16867;DHT22;8550;52.596;13.320;2023-10-08T21:18:37;10.90;99.90
16867;DHT22;8550;52.596;13.320;2023-10-08T21:23:39;10.90;99.90
16867;DHT22;8550;52.596;13.320;2023-10-08T21:28:41;10.80;99.90
16867;DHT22;8550;52.596;13.320;2023-10-08T21:33:44;10.80;99.90
16867;DHT22;8550;52.596;13.320;2023-10-08T21:38:46;10.70;99.90
16867;DHT22;8550;52.596;13.320;2023-10-08T21:43:48;10.80;99.90
16867;DHT22;8550;52.596;13.320;2023-10-08T21:48:51;10.90;99.90
16867;DHT22;8550;52.596;13.320;2023-10-08T21:53:54;11.00;99.90
16867;DHT22;8550;52.596;13.320;2023-10-08T21:58:56;11.00;99.90
16867;DHT22;8550;52.596;13.320;2023-10-08T22:04:00;11.20;99.90
16867;DHT22;8550;52.596;13.320;2023-10-08T22:09:02;11.30;99.90
16867;DHT22;8550;52.596;13.320;2023-10-08T22:14:11;11.50;99.90
16867;DHT22;8550;52.596;13.320;2023-10-08T22:19:16;11.40;99.90
16867;DHT22;8550;52.596;13.320;2023-10-08T22:24:22;11.40;99.90
16867;DHT22;8550;52.596;13.320;2023-10-08T22:29:24;11.30;99.90
16867;DHT22;8550;52.596;13.320;2023-10-08T22:34:29;11.30;99.90
16867;DHT22;8550;52.596;13.320;2023-10-08T22:39:31;11.30;99.90
16867;DHT22;8550;52.596;13.320;2023-10-08T22:44:34;11.30;99.90
16867;DHT22;8550;52.596;13.320;2023-10-08T22:49:37;11.30;99.90
16867;DHT22;8550;52.596;13.320;2023-10-08T22:54:39;11.30;99.90
16867;DHT22;8550;52.596;13.320;2023-10-08T22:59:41;11.20;99.90
16867;DHT22;8550;52.596;13.320;2023-10-08T23:04:44;11.20;99.90
16867;DHT22;8550;52.596;13.320;2023-10-08T23:09:46;11.20;99.90
16867;DHT22;8550;52.596;13.320;2023-10-08T23:14:49;11.20;99.90
16867;DHT22;8550;52.596;13.320;2023-10-08T23:19:55;11.30;99.90
16867;DHT22;8550;52.596;13.320;2023-10-08T23:24:57;11.30;99.90
16867;DHT22;8550;52.596;13.320;2023-10-08T23:30:02;11.40;99.90
16867;DHT22;8550;52.596;13.320;2023-10-08T23:35:08;11.40;99.90
16867;DHT22;8550;52.596;13.320;2023-10-08T23:40:17;11.20;99.90
16867;DHT22;8550;52.596;13.320;2023-10-08T23:45:26;11.10;99.90
16867;DHT22;8550;52.596;13.320;2023-10-08T23:50:29;10.90;99.90
16867;DHT22;8550;52.596;13.320;2023-10-08T23:55:31;10.80;99.90
